createdAt,value
2019-04-23T00:00:03.695Z,64.22
2019-04-23T00:04:55.506Z,64.81
2019-04-23T00:10:06.538Z,64.50
2019-04-23T00:20:14.685Z,65.29
2019-04-23T00:26:00.339Z,65.78
2019-04-23T00:30:58.223Z,65.76
2019-04-23T00:36:07.021Z,66.46
2019-04-23T00:41:10.650Z,66.87
2019-04-23T00:46:18.987Z,66.99
2019-04-23T00:51:22.756Z,67.36
2019-04-23T00:56:40.248Z,67.43
2019-04-23T01:01:49.568Z,67.82
2019-04-23T01:06:51.201Z,67.97
2019-04-23T01:12:03.073Z,68.09
2019-04-23T01:17:11.427Z,68.32
2019-04-23T01:21:55.657Z,68.37
2019-04-23T01:32:36.512Z,68.90
2019-04-23T01:37:58.416Z,69.39
2019-04-23T01:42:49.291Z,69.30
2019-04-23T01:48:12.452Z,69.73
2019-04-23T01:58:36.805Z,70.25
2019-04-23T02:03:21.222Z,70.76
2019-04-23T02:08:28.008Z,70.87
2019-04-23T02:13:38.339Z,71.50
2019-04-23T02:18:41.657Z,71.42
2019-04-23T02:23:54.863Z,71.01
2019-04-23T02:29:14.678Z,71.10
2019-04-23T02:34:23.233Z,71.25
2019-04-23T02:39:26.501Z,71.46
2019-04-23T02:44:24.077Z,71.60
2019-04-23T02:49:44.336Z,72.05
2019-04-23T02:54:50.423Z,72.43
2019-04-23T03:00:11.639Z,72.59
2019-04-23T03:10:08.181Z,72.93
2019-04-23T03:15:52.263Z,72.92
2019-04-23T03:21:05.807Z,73.12
2019-04-23T03:26:08.955Z,73.28
2019-04-23T03:32:48.190Z,73.64
2019-04-23T03:36:33.844Z,73.40
2019-04-23T03:52:02.533Z,73.07
2019-04-23T03:57:16.376Z,72.78
2019-04-23T04:07:15.159Z,72.43
2019-04-23T04:12:31.048Z,71.91
2019-04-23T04:17:19.599Z,71.60
2019-04-23T04:22:44.076Z,70.93
2019-04-23T04:27:45.311Z,69.79
2019-04-23T04:33:02.351Z,68.29
2019-04-23T04:48:04.724Z,63.95
2019-04-23T04:53:39.729Z,62.88
2019-04-23T04:58:28.445Z,62.04
2019-04-23T05:03:28.484Z,60.33
2019-04-23T05:08:39.704Z,59.64
2019-04-23T05:19:20.064Z,58.58
2019-04-23T05:24:15.030Z,57.91
2019-04-23T05:29:19.919Z,57.91
2019-04-23T05:34:38.651Z,57.84
2019-04-23T05:39:39.784Z,57.07
2019-04-23T05:44:50.286Z,55.96
2019-04-23T05:49:55.032Z,53.99
2019-04-23T05:55:05.194Z,52.63
2019-04-23T06:00:08.991Z,52.98
2019-04-23T06:05:44.871Z,51.44
2019-04-23T06:10:30.444Z,50.51
2019-04-23T06:15:41.791Z,51.41
2019-04-23T06:20:54.314Z,50.97
2019-04-23T06:26:19.767Z,49.66
2019-04-23T06:31:34.198Z,49.46
2019-04-23T06:36:46.353Z,49.18
2019-04-23T06:42:03.543Z,47.68
2019-04-23T06:47:22.066Z,48.35
2019-04-23T06:52:45.500Z,49.20
2019-04-23T06:57:38.202Z,49.01
2019-04-23T07:02:53.726Z,48.78
2019-04-23T07:08:02.852Z,47.13
2019-04-23T07:13:12.146Z,46.21
2019-04-23T07:18:16.611Z,47.86
2019-04-23T07:23:35.749Z,47.38
2019-04-23T07:28:39.112Z,48.70
2019-04-23T07:33:54.727Z,48.81
2019-04-23T07:44:31.279Z,47.36
2019-04-23T07:54:49.211Z,47.13
2019-04-23T07:59:56.885Z,46.84
2019-04-23T08:05:11.688Z,46.73
2019-04-23T08:10:10.157Z,46.81
2019-04-23T08:15:18.181Z,48.43
2019-04-23T08:20:22.037Z,47.56
2019-04-23T08:26:00.486Z,46.81
2019-04-23T08:31:05.589Z,45.41
2019-04-23T08:36:12.368Z,45.87
2019-04-23T08:41:33.763Z,45.79
2019-04-23T08:46:51.004Z,44.40
2019-04-23T08:52:09.152Z,44.02
2019-04-23T08:57:05.161Z,46.95
2019-04-23T09:12:27.016Z,45.81
2019-04-23T09:17:34.631Z,45.37
2019-04-23T09:27:57.527Z,45.09
2019-04-23T09:33:26.323Z,43.21
2019-04-23T09:38:44.917Z,42.03
2019-04-23T09:49:20.512Z,42.37
2019-04-23T09:54:30.964Z,42.89
2019-04-23T10:04:29.695Z,41.70
2019-04-23T10:09:22.270Z,42.60
2019-04-23T10:14:28.366Z,44.04
2019-04-23T10:19:36.913Z,43.71
2019-04-23T10:24:43.565Z,44.10
2019-04-23T10:29:51.880Z,43.56
2019-04-23T10:35:10.308Z,43.17
2019-04-23T10:40:11.137Z,43.81
2019-04-23T10:45:53.956Z,43.50
2019-04-23T10:51:25.008Z,43.10
2019-04-23T10:56:40.086Z,43.03
2019-04-23T11:01:55.346Z,44.17
2019-04-23T11:06:47.292Z,45.10
2019-04-23T11:12:05.411Z,45.23
2019-04-23T11:17:09.644Z,44.56
2019-04-23T11:22:34.396Z,44.89
2019-04-23T11:27:31.246Z,44.07
2019-04-23T11:32:46.919Z,44.17
2019-04-23T11:42:57.901Z,44.97
2019-04-23T11:48:32.941Z,44.77
2019-04-23T11:53:10.425Z,42.83
2019-04-23T12:03:26.912Z,45.48
2019-04-23T12:08:57.094Z,45.84
2019-04-23T12:35:04.134Z,45.92
2019-04-23T12:41:13.220Z,45.73
2019-04-23T12:51:34.997Z,46.57
2019-04-23T12:56:48.659Z,46.87
2019-04-23T13:01:48.879Z,46.00
2019-04-23T13:44:39.485Z,47.48
2019-04-23T13:49:42.046Z,47.42
2019-04-23T13:59:56.179Z,48.18
2019-04-23T14:48:20.617Z,46.68
2019-04-23T15:03:46.920Z,46.88
2019-04-23T15:20:42.348Z,47.79
2019-04-23T15:26:41.142Z,48.08
2019-04-23T15:31:02.722Z,48.33
2019-04-23T15:41:23.699Z,49.41
2019-04-23T15:46:32.684Z,49.92
2019-04-23T15:51:46.852Z,49.88
2019-04-23T15:56:41.467Z,50.30
2019-04-23T16:01:43.449Z,50.71
2019-04-23T16:06:36.778Z,51.39
2019-04-23T16:12:03.161Z,51.98
2019-04-23T16:18:28.360Z,52.59
2019-04-23T16:23:28.030Z,52.66
2019-04-23T16:28:52.139Z,52.71
2019-04-23T16:33:54.423Z,53.23
2019-04-23T16:39:04.599Z,53.59
2019-04-23T16:44:16.880Z,54.20
2019-04-23T16:49:19.750Z,54.56
2019-04-23T16:59:34.585Z,55.56
2019-04-23T17:04:39.083Z,55.90
2019-04-23T17:09:51.251Z,55.85
2019-04-23T17:15:03.277Z,56.02
2019-04-23T17:20:10.804Z,56.46
2019-04-23T17:30:28.164Z,57.40
2019-04-23T17:41:01.908Z,58.21
2019-04-23T17:46:05.317Z,58.67
2019-04-23T17:51:11.442Z,58.50
2019-04-23T17:56:29.397Z,58.86
2019-04-23T18:06:50.800Z,59.50
2019-04-23T18:11:50.018Z,59.48
2019-04-23T18:22:16.122Z,60.25
2019-04-23T18:27:20.828Z,60.86
2019-04-23T18:33:00.495Z,61.49
2019-04-23T18:37:51.035Z,61.70
2019-04-23T18:43:04.555Z,62.05
2019-04-23T18:48:34.356Z,62.52
2019-04-23T18:58:52.209Z,63.11
2019-04-23T19:04:30.145Z,63.45
2019-04-23T19:10:05.655Z,63.93
2019-04-23T19:19:54.981Z,64.80
2019-04-23T19:25:06.992Z,65.01
2019-04-23T19:30:26.418Z,65.83
2019-04-23T19:35:51.893Z,66.52
2019-04-23T19:40:46.313Z,67.14
2019-04-23T19:45:56.688Z,68.17
2019-04-23T19:50:57.276Z,67.96
2019-04-23T19:56:16.694Z,68.42
2019-04-23T20:01:16.497Z,69.07
2019-04-23T20:06:42.321Z,69.23
2019-04-23T20:11:34.916Z,70.29
2019-04-23T20:17:01.292Z,70.29
2019-04-23T20:21:51.080Z,71.17
2019-04-23T20:27:06.344Z,71.81
2019-04-23T20:37:25.792Z,72.47
2019-04-23T20:42:27.594Z,73.10
2019-04-23T20:47:37.150Z,73.57
2019-04-23T20:52:43.032Z,73.60
2019-04-23T20:58:01.293Z,74.07
2019-04-23T21:03:30.442Z,74.48
2019-04-23T21:08:22.413Z,74.49
2019-04-23T21:13:47.531Z,75.26
2019-04-23T21:23:50.235Z,75.29
2019-04-23T21:40:35.933Z,76.10
2019-04-23T21:44:59.366Z,75.84
2019-04-23T21:55:26.211Z,76.47
2019-04-23T22:00:24.271Z,76.51
2019-04-23T22:10:49.345Z,76.94
2019-04-23T22:16:03.950Z,76.94
2019-04-23T22:21:28.950Z,77.29
2019-04-23T22:31:19.497Z,77.30
2019-04-23T22:36:20.705Z,77.36
2019-04-23T22:41:37.825Z,78.08
2019-04-23T22:46:56.397Z,77.86
2019-04-23T22:52:19.228Z,78.09
2019-04-23T22:56:54.321Z,77.72
2019-04-23T23:02:27.003Z,77.81
2019-04-23T23:07:33.881Z,77.94
2019-04-23T23:12:58.596Z,78.18
2019-04-23T23:17:56.545Z,78.02
2019-04-23T23:22:57.357Z,78.09
2019-04-23T23:28:05.861Z,77.85
2019-04-23T23:33:26.954Z,78.22
2019-04-23T23:38:19.436Z,78.39
2019-04-23T23:48:28.014Z,78.82
2019-04-23T23:53:50.977Z,78.53
2019-04-23T23:58:52.023Z,78.61
